Time;durP1;ratioP1;P1;durP2;ratioP2;P2;SDS_P1;SDS_P2;PMS_P1;PMS_P2;Temp;Humidity;BMP_temperature;BMP_pressure;BME280_temperature;BME280_humidity;BME280_pressure;Samples;Min_cycle;Max_cycle;Signal;HPM_P1;HPM_P2
2023/04/10 00:01:26;;;;;;;15.80;13.60;;;;;;;10.43;100.00;100308.68;107379;1274;22514;-67
2023/04/10 00:04:02;;;;;;;15.10;13.40;;;;;;;10.41;100.00;100302.73;107390;1273;24215;-67
2023/04/10 00:06:33;;;;;;;15.10;13.60;;;;;;;10.36;100.00;100301.48;107244;1273;22525;-67
2023/04/10 00:09:02;;;;;;;14.60;12.50;;;;;;;10.34;100.00;100304.58;107303;1259;22507;-68
2023/04/10 00:11:31;;;;;;;16.90;13.20;;;;;;;10.31;100.00;100301.92;107392;1273;25465;-68
2023/04/10 00:14:00;;;;;;;16.80;13.70;;;;;;;10.30;100.00;100300.67;107642;1270;25324;-67
2023/04/10 00:16:31;;;;;;;16.80;13.90;;;;;;;10.30;100.00;100301.58;107525;1273;26514;-68
2023/04/10 00:18:59;;;;;;;18.90;14.70;;;;;;;10.28;100.00;100302.81;107455;1269;23701;-68
2023/04/10 00:21:28;;;;;;;16.70;13.50;;;;;;;10.25;100.00;100298.69;107369;1274;22513;-68
2023/04/10 00:24:00;;;;;;;15.90;14.30;;;;;;;10.27;100.00;100301.61;107380;1275;23252;-68
2023/04/10 00:26:30;;;;;;;15.40;13.80;;;;;;;10.26;100.00;100299.42;107484;1270;22547;-67
2023/04/10 00:28:59;;;;;;;18.30;14.40;;;;;;;10.25;100.00;100302.61;107354;1274;25785;-67
2023/04/10 00:31:36;;;;;;;17.60;14.80;;;;;;;10.20;100.00;100302.41;107354;1273;23471;-68
2023/04/10 00:34:07;;;;;;;16.60;14.40;;;;;;;10.19;100.00;100298.20;107310;1270;25503;-67
2023/04/10 00:36:37;;;;;;;18.00;14.80;;;;;;;10.21;100.00;100299.36;109178;1267;25334;-67
2023/04/10 00:39:06;;;;;;;16.30;14.50;;;;;;;10.18;100.00;100300.52;107343;1273;22562;-67
2023/04/10 00:41:39;;;;;;;19.50;14.50;;;;;;;10.19;100.00;100302.23;107331;1274;25222;-68
2023/04/10 00:44:07;;;;;;;16.80;15.10;;;;;;;10.19;100.00;100304.02;107529;1270;25945;-67
2023/04/10 00:46:36;;;;;;;18.40;16.20;;;;;;;10.17;100.00;100305.46;107250;1254;22524;-67
2023/04/10 00:49:05;;;;;;;19.90;17.40;;;;;;;10.16;100.00;100304.42;107344;1274;24248;-67
2023/04/10 00:51:34;;;;;;;21.20;18.90;;;;;;;10.12;100.00;100308.98;107351;1271;25398;-68
2023/04/10 00:54:09;;;;;;;21.00;18.80;;;;;;;10.12;100.00;100306.30;107471;1267;25465;-68
2023/04/10 00:56:37;;;;;;;20.10;17.30;;;;;;;10.12;100.00;100306.64;107303;1273;25319;-68
2023/04/10 00:59:06;;;;;;;20.80;18.10;;;;;;;10.12;100.00;100307.19;107448;1274;24259;-68
2023/04/10 01:01:36;;;;;;;26.20;18.30;;;;;;;10.07;100.00;100307.66;107246;1274;25295;-68
2023/04/10 01:04:12;;;;;;;19.80;17.70;;;;;;;10.06;100.00;100305.52;107305;1275;25401;-68
2023/04/10 01:06:59;;;;;;;20.00;17.40;;;;;;;10.06;100.00;100305.42;107292;1274;22533;-68
2023/04/10 01:09:35;;;;;;;18.90;16.70;;;;;;;10.01;100.00;100302.09;107292;1275;25321;-67
2023/04/10 01:12:11;;;;;;;19.80;16.30;;;;;;;9.98;100.00;100302.28;107642;1269;25337;-67
2023/04/10 01:15:01;;;;;;;18.80;16.10;;;;;;;9.98;100.00;100306.58;107513;1273;25343;-67
2023/04/10 01:17:51;;;;;;;20.60;17.50;;;;;;;9.95;100.00;100307.36;107361;1270;26618;-67
2023/04/10 01:20:24;;;;;;;20.80;16.30;;;;;;;9.95;100.00;100304.37;107318;1275;22521;-67
2023/04/10 01:23:30;;;;;;;24.10;18.60;;;;;;;9.98;100.00;100301.35;107780;1270;22527;-68
2023/04/10 01:26:00;;;;;;;18.60;16.50;;;;;;;9.96;100.00;100309.05;107429;1273;25460;-67
2023/04/10 01:28:30;;;;;;;21.30;15.90;;;;;;;9.98;100.00;100307.61;107281;1275;25325;-68
2023/04/10 01:30:59;;;;;;;21.00;16.40;;;;;;;9.99;100.00;100306.80;107304;1270;24238;-66
2023/04/10 01:33:32;;;;;;;21.90;18.00;;;;;;;10.00;100.00;100308.61;106931;1274;26601;-68
2023/04/10 01:36:02;;;;;;;22.50;17.90;;;;;;;9.96;100.00;100304.42;108403;1273;22945;-68
2023/04/10 01:38:33;;;;;;;20.10;16.70;;;;;;;9.96;100.00;100301.77;110455;1270;23246;-68
2023/04/10 01:41:01;;;;;;;19.80;16.10;;;;;;;9.97;100.00;100298.91;110504;1273;22191;-68
2023/04/10 01:43:31;;;;;;;21.90;17.20;;;;;;;9.97;100.00;100299.83;110413;1273;22209;-68
2023/04/10 01:46:00;;;;;;;20.60;15.80;;;;;;;9.94;100.00;100300.50;110472;1275;22956;-68
2023/04/10 01:48:29;;;;;;;22.90;16.40;;;;;;;9.96;100.00;100302.54;110470;1275;22290;-68
2023/04/10 01:50:59;;;;;;;17.80;15.60;;;;;;;9.98;100.00;100301.21;110503;1275;22188;-68
2023/04/10 01:53:27;;;;;;;18.60;16.20;;;;;;;9.99;100.00;100307.96;110475;1275;22435;-68
2023/04/10 01:55:55;;;;;;;19.60;16.00;;;;;;;9.97;100.00;100306.53;110442;1274;22337;-68
2023/04/10 01:58:24;;;;;;;19.50;16.30;;;;;;;9.98;100.00;100309.36;107305;1273;22550;-68
2023/04/10 02:00:56;;;;;;;19.90;16.90;;;;;;;10.00;100.00;100308.35;107643;1267;22639;-68
2023/04/10 02:03:26;;;;;;;21.10;16.60;;;;;;;10.00;100.00;100307.42;107330;1275;25368;-67
2023/04/10 02:06:07;;;;;;;21.80;18.30;;;;;;;9.95;100.00;100309.43;107492;1267;25393;-68
2023/04/10 02:09:16;;;;;;;19.70;16.80;;;;;;;9.95;100.00;100307.63;107288;1272;25317;-67
2023/04/10 02:11:51;;;;;;;20.40;16.30;;;;;;;9.96;100.00;100311.06;107538;1275;25347;-67
2023/04/10 02:14:23;;;;;;;23.60;18.90;;;;;;;9.94;100.00;100313.29;107979;1267;25302;-68
2023/04/10 02:16:53;;;;;;;24.70;20.20;;;;;;;9.97;100.00;100312.55;107500;1274;25452;-67
2023/04/10 02:19:22;;;;;;;24.80;19.70;;;;;;;9.94;100.00;100309.20;107353;1275;23289;-66
2023/04/10 02:21:53;;;;;;;24.60;20.90;;;;;;;9.94;100.00;100309.53;107182;1273;25399;-67
2023/04/10 02:24:21;;;;;;;23.80;19.20;;;;;;;9.95;100.00;100309.26;106926;1275;26489;-67
2023/04/10 02:26:50;;;;;;;28.40;19.80;;;;;;;9.93;100.00;100309.57;107107;1274;22634;-67
2023/04/10 02:29:20;;;;;;;30.30;21.20;;;;;;;9.94;100.00;100314.80;107415;1275;25350;-67
2023/04/10 02:31:49;;;;;;;23.50;20.60;;;;;;;9.95;100.00;100314.76;107538;1273;25426;-67
2023/04/10 02:34:18;;;;;;;24.70;20.10;;;;;;;9.91;100.00;100313.40;107618;1267;22536;-67
2023/04/10 02:36:47;;;;;;;23.80;19.20;;;;;;;9.91;100.00;100310.52;107397;1275;25346;-67
2023/04/10 02:39:16;;;;;;;21.40;18.30;;;;;;;9.91;100.00;100313.46;107339;1274;25533;-67
2023/04/10 02:41:51;;;;;;;21.80;17.20;;;;;;;9.88;100.00;100310.71;107462;1274;22528;-67
2023/04/10 02:44:20;;;;;;;19.50;16.20;;;;;;;9.83;100.00;100311.99;107260;1275;22523;-67
2023/04/10 02:46:48;;;;;;;20.20;16.10;;;;;;;9.84;100.00;100314.52;107422;1273;26747;-67
2023/04/10 02:49:17;;;;;;;21.90;16.60;;;;;;;9.85;100.00;100315.30;107423;1274;22624;-67
2023/04/10 02:51:45;;;;;;;22.50;16.20;;;;;;;9.85;100.00;100317.77;107435;1274;23886;-67
2023/04/10 02:54:14;;;;;;;19.60;15.90;;;;;;;9.84;100.00;100320.18;107282;1275;25331;-67
2023/04/10 02:56:43;;;;;;;22.50;16.20;;;;;;;9.86;100.00;100322.91;107466;1274;25312;-67
2023/04/10 02:59:12;;;;;;;24.30;17.30;;;;;;;9.81;100.00;100320.19;107396;1270;22596;-67
2023/04/10 03:01:41;;;;;;;23.60;17.90;;;;;;;9.79;100.00;100315.33;110439;1267;22350;-67
2023/04/10 03:04:09;;;;;;;22.20;16.80;;;;;;;9.81;100.00;100322.09;110513;1274;23123;-67
2023/04/10 03:06:39;;;;;;;21.60;17.00;;;;;;;9.85;100.00;100325.62;110432;1273;22181;-67
2023/04/10 03:09:08;;;;;;;22.10;17.40;;;;;;;9.85;100.00;100322.14;110494;1273;23139;-67
2023/04/10 03:11:36;;;;;;;22.00;17.30;;;;;;;9.85;100.00;100324.74;110451;1275;22290;-67
2023/04/10 03:14:10;;;;;;;24.90;19.10;;;;;;;9.84;100.00;100321.75;110477;1274;23080;-67
2023/04/10 03:16:38;;;;;;;24.10;18.10;;;;;;;9.85;100.00;100325.36;110363;1274;22424;-67
2023/04/10 03:19:07;;;;;;;27.20;19.80;;;;;;;9.87;100.00;100322.27;110535;1269;22927;-67
2023/04/10 03:21:35;;;;;;;26.50;20.10;;;;;;;9.80;100.00;100323.55;110455;1269;22224;-67
2023/04/10 03:24:05;;;;;;;28.40;20.40;;;;;;;9.79;100.00;100322.73;110454;1275;22373;-67
2023/04/10 03:26:33;;;;;;;28.10;20.10;;;;;;;9.81;100.00;100327.20;110476;1274;22464;-67
2023/04/10 03:29:02;;;;;;;28.20;19.10;;;;;;;9.80;100.00;100322.30;109763;1274;22550;-67
2023/04/10 03:31:30;;;;;;;29.40;20.60;;;;;;;9.81;100.00;100323.45;107655;1269;26579;-66
2023/04/10 03:34:00;;;;;;;29.60;20.50;;;;;;;9.80;100.00;100324.96;107427;1274;22517;-67
2023/04/10 03:36:28;;;;;;;26.80;20.40;;;;;;;9.81;100.00;100322.68;107271;1274;25394;-67
2023/04/10 03:38:56;;;;;;;29.10;20.30;;;;;;;9.81;100.00;100330.20;107501;1274;24356;-67
2023/04/10 03:41:26;;;;;;;31.00;21.20;;;;;;;9.80;100.00;100327.90;107450;1270;25312;-67
2023/04/10 03:43:54;;;;;;;29.10;21.50;;;;;;;9.75;100.00;100327.83;107485;1274;22513;-67
2023/04/10 03:46:23;;;;;;;28.60;21.40;;;;;;;9.74;100.00;100327.77;107443;1272;22570;-67
2023/04/10 03:48:52;;;;;;;25.00;19.10;;;;;;;9.75;100.00;100330.59;107538;1269;25321;-67
2023/04/10 03:51:23;;;;;;;30.00;20.30;;;;;;;9.74;100.00;100326.23;107553;1275;22514;-67
2023/04/10 03:53:52;;;;;;;27.20;20.20;;;;;;;9.72;100.00;100328.45;107367;1275;22696;-68
2023/04/10 03:56:21;;;;;;;29.60;21.80;;;;;;;9.72;100.00;100329.20;107463;1274;22637;-67
2023/04/10 03:58:54;;;;;;;27.80;19.60;;;;;;;9.73;100.00;100332.64;107275;1274;25315;-67
2023/04/10 04:01:23;;;;;;;25.80;19.30;;;;;;;9.76;100.00;100334.73;107369;1275;25315;-67
2023/04/10 04:03:58;;;;;;;27.00;19.60;;;;;;;9.76;100.00;100335.45;107316;1274;25343;-67
2023/04/10 04:06:50;;;;;;;24.80;18.40;;;;;;;9.76;100.00;100338.17;107406;1274;25305;-67
2023/04/10 04:09:44;;;;;;;27.40;19.60;;;;;;;9.77;100.00;100341.84;107214;1274;24483;-67
2023/04/10 04:12:20;;;;;;;30.40;21.50;;;;;;;9.77;100.00;100340.46;108375;1275;24196;-68
2023/04/10 04:15:03;;;;;;;31.30;20.90;;;;;;;9.72;100.00;100344.69;107330;1275;25306;-67
2023/04/10 04:17:53;;;;;;;29.30;20.70;;;;;;;9.72;100.00;100347.57;107786;1273;25369;-68
2023/04/10 04:20:40;;;;;;;25.20;19.20;;;;;;;9.74;100.00;100352.39;107460;1268;25039;-67
2023/04/10 04:23:30;;;;;;;29.80;21.10;;;;;;;9.74;100.00;100354.41;107108;1274;25333;-67
2023/04/10 04:26:23;;;;;;;29.40;19.90;;;;;;;9.72;100.00;100354.92;107212;1275;25398;-68
2023/04/10 04:29:14;;;;;;;32.30;20.80;;;;;;;9.76;100.00;100355.15;107359;1272;24180;-67
2023/04/10 04:32:15;;;;;;;27.40;19.70;;;;;;;9.78;100.00;100356.23;107281;1274;23211;-67
2023/04/10 04:35:02;;;;;;;28.80;20.50;;;;;;;9.75;100.00;100361.33;107607;1275;23211;-67
2023/04/10 04:37:49;;;;;;;24.20;18.80;;;;;;;9.67;100.00;100360.56;107395;1274;24921;-67
2023/04/10 04:40:47;;;;;;;22.20;17.40;;;;;;;9.64;100.00;100360.34;107328;1269;25321;-67
2023/04/10 04:43:40;;;;;;;23.30;18.80;;;;;;;9.62;100.00;100358.77;107386;1268;25460;-67
2023/04/10 04:46:26;;;;;;;24.60;18.00;;;;;;;9.65;100.00;100368.35;107208;1274;22770;-67
2023/04/10 04:49:27;;;;;;;22.30;17.20;;;;;;;9.63;100.00;100365.98;107180;1274;22520;-67
2023/04/10 04:52:15;;;;;;;21.70;17.30;;;;;;;9.60;100.00;100368.66;107385;1274;23337;-67
2023/04/10 04:54:48;;;;;;;21.90;17.20;;;;;;;9.56;100.00;100373.45;107352;1275;25324;-67
2023/04/10 04:57:46;;;;;;;22.80;17.30;;;;;;;9.58;100.00;100370.91;109378;1274;24224;-67
2023/04/10 05:00:24;;;;;;;25.20;18.50;;;;;;;9.62;100.00;100377.13;107299;1274;22833;-67
2023/04/10 05:03:23;;;;;;;24.30;19.10;;;;;;;9.64;100.00;100382.76;107326;1274;22514;-67
2023/04/10 05:06:13;;;;;;;22.00;18.40;;;;;;;9.67;100.00;100383.13;110501;1274;22916;-67
2023/04/10 05:09:11;;;;;;;23.50;19.70;;;;;;;9.72;100.00;100389.28;110461;1275;22171;-68
2023/04/10 05:11:57;;;;;;;28.80;21.00;;;;;;;9.75;100.00;100393.13;110398;1272;22333;-67
2023/04/10 05:14:45;;;;;;;27.90;19.60;;;;;;;9.77;100.00;100393.11;110459;1274;22332;-68
2023/04/10 05:17:38;;;;;;;27.70;20.00;;;;;;;9.79;100.00;100396.52;108658;1273;25277;-66
2023/04/10 05:20:35;;;;;;;26.40;19.90;;;;;;;9.78;100.00;100397.75;108045;1274;21739;-68
2023/04/10 05:23:42;;;;;;;26.00;19.70;;;;;;;9.79;100.00;100406.35;107063;1270;22500;-67
2023/04/10 05:26:43;;;;;;;29.30;21.10;;;;;;;9.77;100.00;100405.88;107139;1274;24002;-68
2023/04/10 05:31:24;;;;;;;29.40;22.30;;;;;;;9.71;100.00;100379.23;104140;1305;545038;-68
2023/04/10 05:33:59;;;;;;;30.00;22.70;;;;;;;9.73;100.00;100409.48;106440;1286;25347;-66
2023/04/10 05:36:42;;;;;;;29.80;22.30;;;;;;;9.78;100.00;100404.39;106440;1288;22629;-67
2023/04/10 05:39:37;;;;;;;31.00;23.50;;;;;;;9.78;100.00;100406.98;106508;1288;23890;-67
2023/04/10 05:42:23;;;;;;;32.60;22.30;;;;;;;9.80;100.00;100402.99;106412;1288;22559;-67
2023/04/10 05:45:13;;;;;;;33.70;22.30;;;;;;;9.79;100.00;100404.77;106247;1287;224130;-67
2023/04/10 05:48:24;;;;;;;36.30;24.40;;;;;;;9.80;100.00;100410.06;106149;1291;23483;-66
2023/04/10 05:51:12;;;;;;;34.40;23.40;;;;;;;9.76;100.00;100413.50;106009;1270;22532;-67
2023/04/10 05:53:59;;;;;;;36.00;24.20;;;;;;;9.78;100.00;100411.45;106239;1277;24207;-67
2023/04/10 05:56:41;;;;;;;30.40;22.50;;;;;;;9.79;100.00;100409.77;106522;1287;22533;-67
2023/04/10 05:59:39;;;;;;;33.90;24.80;;;;;;;9.81;100.00;100409.76;106139;1288;23287;-68
2023/04/10 06:02:26;;;;;;;30.30;22.60;;;;;;;9.82;100.00;100410.20;106519;1287;25356;-67
2023/04/10 06:04:55;;;;;;;36.30;23.10;;;;;;;9.88;100.00;100412.14;107054;1282;22608;-67
2023/04/10 06:07:24;;;;;;;30.60;21.80;;;;;;;9.93;100.00;100412.81;106520;1280;22976;-66
2023/04/10 06:09:54;;;;;;;28.10;20.90;;;;;;;10.00;100.00;100414.91;106499;1285;25412;-67
2023/04/10 06:12:23;;;;;;;27.30;20.80;;;;;;;10.00;100.00;100420.29;106295;1286;22559;-67
2023/04/10 06:14:53;;;;;;;28.80;21.20;;;;;;;10.02;100.00;100420.71;106460;1286;24375;-68
2023/04/10 06:17:24;;;;;;;30.20;21.50;;;;;;;10.05;100.00;100420.73;106361;1287;25223;-67
2023/04/10 06:19:55;;;;;;;29.50;22.10;;;;;;;10.04;100.00;100425.62;106483;1286;24253;-67
2023/04/10 06:22:31;;;;;;;27.80;21.30;;;;;;;10.01;100.00;100427.92;106453;1280;25341;-66
2023/04/10 06:25:01;;;;;;;27.70;20.20;;;;;;;10.04;100.00;100428.77;106380;1287;25395;-67
2023/04/10 06:27:34;;;;;;;23.60;18.40;;;;;;;10.04;100.00;100425.36;106661;1287;25338;-67
2023/04/10 06:30:08;;;;;;;24.10;18.10;;;;;;;10.01;100.00;100429.89;106604;1287;23312;-67
2023/04/10 06:32:39;;;;;;;24.20;18.80;;;;;;;9.96;100.00;100430.48;109647;1287;23033;-68
2023/04/10 06:35:09;;;;;;;21.50;17.70;;;;;;;9.93;100.00;100433.16;109691;1287;22339;-67
2023/04/10 06:37:38;;;;;;;23.70;17.30;;;;;;;9.95;100.00;100426.48;109671;1287;22736;-67
2023/04/10 06:40:08;;;;;;;23.50;17.50;;;;;;;9.97;100.00;100423.80;109631;1287;22202;-67
2023/04/10 06:42:37;;;;;;;22.50;17.80;;;;;;;9.96;100.00;100427.77;108694;1288;25378;-67
2023/04/10 06:45:22;;;;;;;23.00;18.40;;;;;;;9.93;100.00;100426.73;106567;1280;25233;-67
2023/04/10 06:47:51;;;;;;;24.20;19.00;;;;;;;9.97;100.00;100427.11;106695;1288;25338;-67
2023/04/10 06:50:22;;;;;;;23.50;19.50;;;;;;;9.99;100.00;100426.96;106948;1280;25347;-67
2023/04/10 06:52:52;;;;;;;22.60;18.60;;;;;;;9.99;100.00;100424.14;107007;1280;22573;-67
2023/04/10 06:55:20;;;;;;;23.40;20.50;;;;;;;10.04;100.00;100425.64;107017;1280;22668;-67
2023/04/10 06:58:08;;;;;;;26.20;18.90;;;;;;;10.06;100.00;100429.63;106983;1281;22549;-66
2023/04/10 07:00:37;;;;;;;23.70;19.40;;;;;;;10.10;100.00;100425.27;106992;1281;22687;-67
2023/04/10 07:03:06;;;;;;;25.10;18.90;;;;;;;10.13;100.00;100430.15;107057;1274;22527;-67
2023/04/10 07:05:35;;;;;;;24.50;18.90;;;;;;;10.15;100.00;100433.75;107004;1280;22547;-67
2023/04/10 07:08:03;;;;;;;22.50;18.90;;;;;;;10.16;100.00;100433.65;106880;1280;26618;-67
2023/04/10 07:10:35;;;;;;;25.60;20.30;;;;;;;10.18;100.00;100433.67;106727;1281;25346;-67
2023/04/10 07:13:05;;;;;;;28.70;21.50;;;;;;;10.12;100.00;100429.17;106776;1279;23514;-67
2023/04/10 07:15:40;;;;;;;27.40;21.00;;;;;;;10.13;100.00;100430.10;106780;1281;25325;-68
2023/04/10 07:18:09;;;;;;;26.30;21.20;;;;;;;10.12;100.00;100427.97;106988;1279;25569;-68
2023/04/10 07:20:37;;;;;;;26.20;21.50;;;;;;;10.14;100.00;100427.71;107065;1281;22545;-67
2023/04/10 07:23:10;;;;;;;25.70;20.90;;;;;;;10.16;100.00;100426.04;106974;1280;22523;-68
2023/04/10 07:25:42;;;;;;;30.80;23.80;;;;;;;10.21;100.00;100428.39;106892;1278;27912;-67
2023/04/10 07:28:10;;;;;;;28.30;21.80;;;;;;;10.25;100.00;100432.20;106638;1281;25406;-68
2023/04/10 07:30:38;;;;;;;29.40;22.40;;;;;;;10.24;100.00;100437.90;106810;1276;22563;-68
2023/04/10 07:33:07;;;;;;;32.30;22.80;;;;;;;10.22;100.00;100439.30;107105;1278;22613;-68
2023/04/10 07:35:35;;;;;;;28.30;21.30;;;;;;;10.24;100.00;100443.17;107090;1273;24259;-68
2023/04/10 07:38:06;;;;;;;26.30;20.60;;;;;;;10.21;100.00;100439.33;107044;1278;23787;-67
2023/04/10 07:40:34;;;;;;;27.60;20.20;;;;;;;10.17;100.00;100440.79;107121;1278;25497;-67
2023/04/10 07:43:03;;;;;;;24.10;19.90;;;;;;;10.17;100.00;100439.06;107088;1278;22686;-68
2023/04/10 07:45:32;;;;;;;26.60;20.90;;;;;;;10.15;100.00;100443.14;106912;1278;23274;-68
2023/04/10 07:48:01;;;;;;;26.50;21.20;;;;;;;10.15;100.00;100442.13;106906;1273;22552;-67
2023/04/10 07:50:32;;;;;;;26.30;20.70;;;;;;;10.18;100.00;100440.70;107360;1278;22688;-69
2023/04/10 07:53:06;;;;;;;25.70;19.20;;;;;;;10.16;100.00;100436.59;107384;1273;25423;-67
2023/04/10 07:55:38;;;;;;;24.80;18.90;;;;;;;10.22;100.00;100439.55;110135;1273;22295;-70
2023/04/10 07:58:09;;;;;;;23.20;18.60;;;;;;;10.28;100.00;100439.43;110161;1278;22185;-68
2023/04/10 08:00:38;;;;;;;24.70;20.60;;;;;;;10.28;100.00;100436.25;110122;1276;22384;-68
2023/04/10 08:03:06;;;;;;;27.00;20.70;;;;;;;10.30;100.00;100439.08;109553;1278;22539;-68
2023/04/10 08:05:35;;;;;;;26.00;18.80;;;;;;;10.33;100.00;100443.46;107272;1278;22563;-66
2023/04/10 08:08:04;;;;;;;20.70;15.60;;;;;;;10.34;100.00;100442.99;107200;1278;26492;-68
2023/04/10 08:10:36;;;;;;;20.20;15.20;;;;;;;10.33;100.00;100442.76;107220;1279;25478;-67
2023/04/10 08:13:05;;;;;;;19.20;13.80;;;;;;;10.28;100.00;100442.51;107301;1278;22740;-67
2023/04/10 08:15:34;;;;;;;16.60;12.60;;;;;;;10.27;100.00;100447.89;107366;1274;25542;-66
2023/04/10 08:18:08;;;;;;;16.80;12.20;;;;;;;10.23;100.00;100448.82;107251;1278;22525;-66
2023/04/10 08:20:39;;;;;;;13.10;10.50;;;;;;;10.20;100.00;100450.09;107291;1278;22524;-66
2023/04/10 08:23:07;;;;;;;13.60;10.10;;;;;;;10.17;100.00;100451.84;107324;1274;22527;-64
2023/04/10 08:25:48;;;;;;;13.90;11.20;;;;;;;10.04;100.00;100455.77;107338;1278;24353;-66
2023/04/10 08:28:16;;;;;;;13.90;10.40;;;;;;;9.94;100.00;100460.63;107271;1278;24921;-66
2023/04/10 08:30:44;;;;;;;13.80;10.80;;;;;;;9.87;100.00;100458.67;107343;1277;24288;-66
2023/04/10 08:33:13;;;;;;;15.50;10.60;;;;;;;9.81;100.00;100462.40;110070;1273;22870;-68
2023/04/10 08:35:42;;;;;;;16.80;12.10;;;;;;;9.77;100.00;100466.02;110062;1280;22220;-68
2023/04/10 08:38:10;;;;;;;14.10;10.70;;;;;;;9.72;100.00;100463.92;109990;1279;22429;-68
2023/04/10 08:40:43;;;;;;;16.00;11.70;;;;;;;9.70;100.00;100462.77;110231;1278;22407;-68
2023/04/10 08:43:13;;;;;;;14.50;11.00;;;;;;;9.70;100.00;100462.17;110357;1277;22344;-67
2023/04/10 08:45:42;;;;;;;17.20;11.70;;;;;;;9.69;100.00;100469.02;110269;1278;22279;-68
2023/04/10 08:48:10;;;;;;;15.60;11.90;;;;;;;9.68;100.00;100466.26;110292;1278;22441;-68
2023/04/10 08:50:42;;;;;;;16.40;11.90;;;;;;;9.71;100.00;100464.68;110142;1278;22201;-68
2023/04/10 08:53:12;;;;;;;13.50;10.70;;;;;;;9.76;100.00;100467.48;110265;1278;23338;-68
2023/04/10 08:55:43;;;;;;;17.40;11.60;;;;;;;9.78;100.00;100468.50;110255;1278;22282;-68
2023/04/10 08:58:12;;;;;;;14.60;9.70;;;;;;;9.79;100.00;100470.73;110262;1278;22399;-68
2023/04/10 09:00:41;;;;;;;13.70;10.20;;;;;;;9.82;100.00;100471.02;110287;1278;22913;-69
2023/04/10 09:03:12;;;;;;;14.30;10.20;;;;;;;9.88;100.00;100472.29;110274;1278;22232;-68
2023/04/10 09:05:41;;;;;;;15.30;10.80;;;;;;;9.91;100.00;100474.35;110162;1278;22293;-68
2023/04/10 09:08:12;;;;;;;15.30;11.10;;;;;;;9.91;100.00;100476.27;110255;1254;22440;-69
2023/04/10 09:10:42;;;;;;;12.00;10.00;;;;;;;9.97;100.00;100479.61;110058;1280;23132;-69
2023/04/10 09:13:11;;;;;;;14.80;10.80;;;;;;;10.04;100.00;100484.23;110063;1280;22243;-69
2023/04/10 09:15:58;;;;;;;17.00;11.60;;;;;;;10.11;100.00;100481.98;110003;1280;22331;-69
2023/04/10 09:18:50;;;;;;;29.30;19.50;;;;;;;10.15;100.00;100480.98;110211;1278;22380;-69
2023/04/10 09:21:19;;;;;;;33.50;19.80;;;;;;;10.19;100.00;100479.06;110268;1278;22958;-69
2023/04/10 09:23:47;;;;;;;31.70;21.20;;;;;;;10.26;100.00;100482.17;110183;1278;22606;-69
2023/04/10 09:26:32;;;;;;;17.10;11.90;;;;;;;10.37;100.00;100480.91;110238;1278;23021;-69
2023/04/10 09:29:02;;;;;;;18.60;12.40;;;;;;;10.46;100.00;100481.25;110170;1278;22192;-69
2023/04/10 09:31:37;;;;;;;16.90;13.00;;;;;;;10.48;100.00;100483.39;110260;1278;22828;-70
2023/04/10 09:34:07;;;;;;;19.40;14.10;;;;;;;10.55;100.00;100483.70;110428;1275;23653;-69
2023/04/10 09:36:36;;;;;;;19.20;14.90;;;;;;;10.68;100.00;100486.57;110402;1276;22204;-69
2023/04/10 09:39:07;;;;;;;17.20;10.70;;;;;;;10.77;100.00;100489.89;110448;1276;22209;-69
2023/04/10 09:41:56;;;;;;;13.60;10.80;;;;;;;10.86;100.00;100489.40;110389;1276;23028;-70
2023/04/10 09:44:32;;;;;;;16.50;11.40;;;;;;;10.86;100.00;100490.23;109461;1276;22902;-69
2023/04/10 09:47:12;;;;;;;16.00;10.80;;;;;;;10.85;100.00;100485.64;108082;1270;22527;-69
2023/04/10 09:49:49;;;;;;;23.50;19.90;;;;;;;10.85;100.00;100487.16;107461;1276;25343;-68
2023/04/10 09:52:32;;;;;;;16.80;12.60;;;;;;;10.84;100.00;100483.05;107428;1276;25316;-69
2023/04/10 09:55:08;;;;;;;15.00;11.10;;;;;;;10.76;100.00;100479.43;107443;1275;23572;-68
2023/04/10 09:57:37;;;;;;;15.40;10.90;;;;;;;10.78;100.00;100472.09;107566;1275;25402;-68
2023/04/10 10:00:09;;;;;;;16.70;11.50;;;;;;;10.83;100.00;100476.56;107561;1275;25325;-68
2023/04/10 10:02:38;;;;;;;30.60;19.00;;;;;;;10.87;100.00;100473.62;107545;1276;22554;-69
2023/04/10 10:05:08;;;;;;;15.70;11.30;;;;;;;11.00;100.00;100472.05;107215;1277;22560;-69
2023/04/10 10:07:40;;;;;;;14.80;11.60;;;;;;;11.16;100.00;100472.34;107355;1277;26557;-68
2023/04/10 10:10:10;;;;;;;12.60;10.10;;;;;;;11.31;100.00;100469.10;107437;1277;25303;-68
2023/04/10 10:12:44;;;;;;;14.10;12.10;;;;;;;11.38;100.00;100468.36;107663;1270;26687;-70
2023/04/10 10:15:22;;;;;;;14.30;10.70;;;;;;;11.44;100.00;100467.64;107556;1275;24552;-68
2023/04/10 10:18:21;;;;;;;12.40;10.00;;;;;;;11.52;100.00;100466.11;107381;1274;23304;-68
2023/04/10 10:20:49;;;;;;;25.90;16.60;;;;;;;11.65;100.00;100462.73;107562;1275;24239;-69
2023/04/10 10:23:25;;;;;;;24.40;13.30;;;;;;;11.79;100.00;100457.85;107781;1275;22919;-69
2023/04/10 10:25:54;;;;;;;10.30;7.90;;;;;;;11.89;100.00;100462.12;109306;1274;22540;-69
2023/04/10 10:28:24;;;;;;;14.80;10.20;;;;;;;12.04;100.00;100456.21;107702;1274;22603;-69
2023/04/10 10:30:52;;;;;;;9.60;8.40;;;;;;;12.25;100.00;100452.39;107593;1275;22603;-69
2023/04/10 10:33:22;;;;;;;8.60;7.10;;;;;;;12.43;100.00;100451.02;107599;1275;23497;-69
2023/04/10 10:35:50;;;;;;;8.40;6.10;;;;;;;12.57;100.00;100443.79;107575;1275;22524;-69
2023/04/10 10:38:26;;;;;;;5.90;4.70;;;;;;;12.61;100.00;100438.08;107522;1275;23338;-69
2023/04/10 10:41:07;;;;;;;6.20;5.20;;;;;;;12.69;100.00;100436.08;110492;1275;22396;-70
2023/04/10 10:43:43;;;;;;;15.10;8.30;;;;;;;12.76;100.00;100430.53;110455;1275;22850;-69
2023/04/10 10:46:17;;;;;;;6.70;4.80;;;;;;;12.78;100.00;100420.98;110442;1275;22629;-70
2023/04/10 10:48:59;;;;;;;13.60;6.60;;;;;;;12.91;100.00;100411.66;110326;1274;22186;-70
2023/04/10 10:51:46;;;;;;;12.10;7.00;;;;;;;13.03;100.00;100404.02;110437;1275;22252;-70
2023/04/10 10:54:31;;;;;;;;;;;;;;;13.18;100.00;100400.73;110463;1275;22570;-69
2023/04/10 10:57:07;;;;;;;6.60;5.30;;;;;;;13.13;100.00;100389.40;110476;1275;22364;-70
2023/04/10 10:59:42;;;;;;;7.80;5.70;;;;;;;13.04;100.00;100382.11;110336;1275;22405;-70
2023/04/10 11:02:16;;;;;;;8.30;6.10;;;;;;;13.19;100.00;100379.13;110474;1275;22224;-70
2023/04/10 11:04:45;;;;;;;8.00;7.20;;;;;;;13.38;100.00;100374.11;110485;1275;22336;-70
2023/04/10 11:07:14;;;;;;;8.90;7.20;;;;;;;13.50;100.00;100368.44;110454;1275;22232;-70
2023/04/10 11:09:52;;;;;;;7.90;6.30;;;;;;;13.59;100.00;100364.99;110448;1275;22476;-70
2023/04/10 11:12:22;;;;;;;8.60;6.40;;;;;;;13.59;100.00;100361.60;110477;1275;22263;-70
2023/04/10 11:15:16;;;;;;;8.70;7.00;;;;;;;13.62;100.00;100355.85;110445;1275;22295;-70
2023/04/10 11:17:54;;;;;;;8.90;7.60;;;;;;;13.61;100.00;100348.30;110424;1275;22220;-71
2023/04/10 11:20:26;;;;;;;8.90;5.80;;;;;;;13.55;100.00;100348.59;110462;1275;23013;-71
2023/04/10 11:23:08;;;;;;;6.90;6.20;;;;;;;13.57;100.00;100342.89;110473;1275;22365;-71
2023/04/10 11:25:51;;;;;;;9.50;6.80;;;;;;;13.67;100.00;100334.87;110460;1275;22340;-71
2023/04/10 11:28:39;;;;;;;8.70;6.70;;;;;;;13.72;100.00;100330.27;110456;1275;22522;-70
2023/04/10 11:31:20;;;;;;;8.60;7.50;;;;;;;13.79;100.00;100327.19;110414;1275;22209;-70
2023/04/10 11:34:00;;;;;;;7.80;6.90;;;;;;;13.91;100.00;100322.77;110463;1275;22966;-71
2023/04/10 11:36:29;;;;;;;9.80;7.90;;;;;;;14.01;100.00;100316.05;110437;1275;22201;-70